Versailles, Kentucky
Current Conditions -  °F | °C
As of 3:54 AM on Friday 31 Oct 2014 (Local Time) from KLEX Reporting Station
Overcast Overcast  
Wind Chill: 46°   Ceiling: 8000
Heat Index: 46°   Visibility: 10mi
Dew Point: 40°   Wind: 0mph
Humidity: 79%   Direction: NA
Pressure: 30.01"   Gusts: NA
Location:  38.05°N, 84.73°W
Report Text: KLEX 310754Z 00000KT 10SM OVC080 08/04 A3001 RMK AO2 RAB38E48 SLP160 P0000 T00780044 $
Loading
Personal Weather Stations






























Interactive Weather Map
Tropical Storm Tracking
New forecast layout! Learn more

10-Day Weather Forecast

Advertisements
Track Severe Weather on mobile